sensor_id;sensor_type;location;lat;lon;timestamp;pressure;altitude;pressure_sealevel;temperature;humidity
77587;BME280;66744;49.716;17.158;2023-02-01T00:02:29;98826.22;;;4.58;73.34
77587;BME280;66744;49.716;17.158;2023-02-01T00:05:30;98820.00;;;4.57;73.70
77587;BME280;66744;49.716;17.158;2023-02-01T00:08:31;98821.53;;;4.55;73.91
77587;BME280;66744;49.716;17.158;2023-02-01T00:11:33;98824.88;;;4.48;74.34
77587;BME280;66744;49.716;17.158;2023-02-01T00:14:34;98822.13;;;4.45;74.91
77587;BME280;66744;49.716;17.158;2023-02-01T00:17:39;98822.28;;;4.33;76.16
77587;BME280;66744;49.716;17.158;2023-02-01T00:20:45;98830.03;;;4.34;76.15
77587;BME280;66744;49.716;17.158;2023-02-01T00:23:46;98845.47;;;4.30;76.35
77587;BME280;66744;49.716;17.158;2023-02-01T00:26:48;98855.13;;;4.08;78.30
77587;BME280;66744;49.716;17.158;2023-02-01T00:29:49;98847.84;;;3.93;79.35
77587;BME280;66744;49.716;17.158;2023-02-01T00:32:50;98849.13;;;3.80;80.30
77587;BME280;66744;49.716;17.158;2023-02-01T00:35:56;98839.16;;;3.65;81.15
77587;BME280;66744;49.716;17.158;2023-02-01T00:38:57;98829.81;;;3.63;81.79
77587;BME280;66744;49.716;17.158;2023-02-01T00:42:00;98841.00;;;3.61;81.53
77587;BME280;66744;49.716;17.158;2023-02-01T00:45:03;98849.81;;;3.58;82.21
77587;BME280;66744;49.716;17.158;2023-02-01T00:48:04;98841.72;;;3.58;82.36
77587;BME280;66744;49.716;17.158;2023-02-01T00:51:12;98853.81;;;3.64;81.95
77587;BME280;66744;49.716;17.158;2023-02-01T00:54:14;98858.13;;;3.84;81.32
77587;BME280;66744;49.716;17.158;2023-02-01T00:57:15;98856.91;;;3.82;80.85
77587;BME280;66744;49.716;17.158;2023-02-01T01:00:17;98871.06;;;3.75;80.77
77587;BME280;66744;49.716;17.158;2023-02-01T01:03:18;98895.16;;;3.80;80.97
77587;BME280;66744;49.716;17.158;2023-02-01T01:06:22;98922.28;;;3.84;81.63
77587;BME280;66744;49.716;17.158;2023-02-01T01:09:24;98899.81;;;3.64;81.73
77587;BME280;66744;49.716;17.158;2023-02-01T01:12:25;98887.91;;;2.99;83.46
77587;BME280;66744;49.716;17.158;2023-02-01T01:15:27;98904.88;;;2.68;85.57
77587;BME280;66744;49.716;17.158;2023-02-01T01:18:28;98909.56;;;2.56;85.89
77587;BME280;66744;49.716;17.158;2023-02-01T01:21:30;98894.50;;;2.55;86.26
77587;BME280;66744;49.716;17.158;2023-02-01T01:24:31;98888.22;;;2.51;86.95
77587;BME280;66744;49.716;17.158;2023-02-01T01:27:32;98878.56;;;2.50;87.50
77587;BME280;66744;49.716;17.158;2023-02-01T01:30:35;98870.97;;;2.55;87.10
77587;BME280;66744;49.716;17.158;2023-02-01T01:33:36;98862.25;;;2.62;87.16
77587;BME280;66744;49.716;17.158;2023-02-01T01:36:38;98871.31;;;2.69;86.70
77587;BME280;66744;49.716;17.158;2023-02-01T01:39:39;98874.91;;;2.73;86.29
77587;BME280;66744;49.716;17.158;2023-02-01T01:42:42;98876.47;;;2.74;86.00
77587;BME280;66744;49.716;17.158;2023-02-01T01:45:51;98881.09;;;2.74;85.67
77587;BME280;66744;49.716;17.158;2023-02-01T01:49:11;98870.63;;;2.72;85.92
77587;BME280;66744;49.716;17.158;2023-02-01T01:52:14;98875.69;;;2.74;85.64
77587;BME280;66744;49.716;17.158;2023-02-01T01:55:17;98873.41;;;2.76;85.55
77587;BME280;66744;49.716;17.158;2023-02-01T01:58:22;98873.84;;;2.78;85.44
77587;BME280;66744;49.716;17.158;2023-02-01T02:01:26;98869.84;;;2.87;85.21
77587;BME280;66744;49.716;17.158;2023-02-01T02:04:28;98868.78;;;2.92;84.75
77587;BME280;66744;49.716;17.158;2023-02-01T02:07:34;98864.34;;;2.99;84.68
77587;BME280;66744;49.716;17.158;2023-02-01T02:10:36;98872.38;;;2.96;83.95
77587;BME280;66744;49.716;17.158;2023-02-01T02:13:56;98871.66;;;2.83;83.74
77587;BME280;66744;49.716;17.158;2023-02-01T02:33:53;98878.28;;;3.17;81.08
77587;BME280;66744;49.716;17.158;2023-02-01T02:43:20;98880.53;;;3.31;78.61
77587;BME280;66744;49.716;17.158;2023-02-01T02:46:46;98877.06;;;3.49;77.20
77587;BME280;66744;49.716;17.158;2023-02-01T02:50:20;98875.16;;;3.50;76.74
77587;BME280;66744;49.716;17.158;2023-02-01T02:54:05;98875.06;;;3.62;75.75
77587;BME280;66744;49.716;17.158;2023-02-01T02:57:34;98876.50;;;3.40;77.26
77587;BME280;66744;49.716;17.158;2023-02-01T03:00:56;98880.75;;;3.41;77.33
77587;BME280;66744;49.716;17.158;2023-02-01T03:04:16;98887.38;;;3.44;77.35
77587;BME280;66744;49.716;17.158;2023-02-01T03:07:49;98886.09;;;3.38;77.21
77587;BME280;66744;49.716;17.158;2023-02-01T03:14:05;98873.47;;;3.26;77.99
77587;BME280;66744;49.716;17.158;2023-02-01T03:17:11;98874.31;;;3.30;77.06
77587;BME280;66744;49.716;17.158;2023-02-01T03:20:15;98884.44;;;3.33;76.79
77587;BME280;66744;49.716;17.158;2023-02-01T03:23:23;98877.72;;;3.27;77.07
77587;BME280;66744;49.716;17.158;2023-02-01T03:26:29;98878.09;;;3.26;77.20
77587;BME280;66744;49.716;17.158;2023-02-01T03:29:49;98880.06;;;3.44;75.79
77587;BME280;66744;49.716;17.158;2023-02-01T03:32:55;98885.66;;;3.36;75.82
77587;BME280;66744;49.716;17.158;2023-02-01T03:39:28;98878.94;;;3.30;76.17
77587;BME280;66744;49.716;17.158;2023-02-01T03:42:40;98883.66;;;3.33;75.76
77587;BME280;66744;49.716;17.158;2023-02-01T03:45:49;98888.56;;;3.27;75.22
77587;BME280;66744;49.716;17.158;2023-02-01T03:48:54;98892.47;;;3.30;76.07
77587;BME280;66744;49.716;17.158;2023-02-01T03:51:58;98885.34;;;3.22;75.85
77587;BME280;66744;49.716;17.158;2023-02-01T03:55:01;98887.28;;;3.21;76.65
77587;BME280;66744;49.716;17.158;2023-02-01T03:58:18;98901.31;;;3.27;76.33
77587;BME280;66744;49.716;17.158;2023-02-01T04:01:20;98908.78;;;3.33;77.23
77587;BME280;66744;49.716;17.158;2023-02-01T04:04:21;98902.09;;;3.12;79.54
77587;BME280;66744;49.716;17.158;2023-02-01T04:07:26;98891.91;;;2.89;81.89
77587;BME280;66744;49.716;17.158;2023-02-01T04:10:27;98886.34;;;2.82;82.83
77587;BME280;66744;49.716;17.158;2023-02-01T04:13:28;98878.72;;;2.72;83.72
77587;BME280;66744;49.716;17.158;2023-02-01T04:16:32;98878.66;;;2.69;84.15
77587;BME280;66744;49.716;17.158;2023-02-01T04:19:34;98877.59;;;2.58;84.33
77587;BME280;66744;49.716;17.158;2023-02-01T04:22:35;98871.75;;;2.56;85.30
77587;BME280;66744;49.716;17.158;2023-02-01T04:25:36;98878.19;;;2.51;85.63
77587;BME280;66744;49.716;17.158;2023-02-01T04:28:37;98882.72;;;2.47;85.46
77587;BME280;66744;49.716;17.158;2023-02-01T04:31:38;98882.53;;;2.56;85.61
77587;BME280;66744;49.716;17.158;2023-02-01T04:34:39;98890.31;;;2.57;85.91
77587;BME280;66744;49.716;17.158;2023-02-01T04:37:40;98889.19;;;2.58;85.47
77587;BME280;66744;49.716;17.158;2023-02-01T04:40:41;98890.91;;;2.51;85.38
77587;BME280;66744;49.716;17.158;2023-02-01T04:43:42;98880.25;;;2.42;85.68
77587;BME280;66744;49.716;17.158;2023-02-01T04:46:45;98873.75;;;2.43;85.35
77587;BME280;66744;49.716;17.158;2023-02-01T04:49:46;98881.94;;;2.47;85.36
77587;BME280;66744;49.716;17.158;2023-02-01T04:52:47;98880.09;;;2.35;85.38
77587;BME280;66744;49.716;17.158;2023-02-01T04:55:48;98888.81;;;2.44;84.51
77587;BME280;66744;49.716;17.158;2023-02-01T04:58:50;98891.94;;;2.46;84.33
77587;BME280;66744;49.716;17.158;2023-02-01T05:01:52;98884.81;;;2.54;83.28
77587;BME280;66744;49.716;17.158;2023-02-01T05:04:53;98885.00;;;2.61;83.04
77587;BME280;66744;49.716;17.158;2023-02-01T05:07:54;98879.88;;;2.71;81.46
77587;BME280;66744;49.716;17.158;2023-02-01T05:10:56;98883.44;;;2.75;80.32
77587;BME280;66744;49.716;17.158;2023-02-01T05:13:58;98883.00;;;2.73;79.70
77587;BME280;66744;49.716;17.158;2023-02-01T05:16:59;98883.59;;;2.67;79.42
77587;BME280;66744;49.716;17.158;2023-02-01T05:20:00;98888.16;;;2.63;79.58
77587;BME280;66744;49.716;17.158;2023-02-01T05:23:01;98893.28;;;2.68;78.60
77587;BME280;66744;49.716;17.158;2023-02-01T05:26:02;98894.94;;;2.72;77.98
77587;BME280;66744;49.716;17.158;2023-02-01T05:29:05;98891.81;;;2.70;78.17
77587;BME280;66744;49.716;17.158;2023-02-01T05:32:06;98886.16;;;2.91;76.23
77587;BME280;66744;49.716;17.158;2023-02-01T05:35:08;98891.03;;;3.01;76.20
77587;BME280;66744;49.716;17.158;2023-02-01T05:38:09;98885.44;;;2.94;76.23
77587;BME280;66744;49.716;17.158;2023-02-01T05:41:10;98885.19;;;2.99;75.65
77587;BME280;66744;49.716;17.158;2023-02-01T05:44:11;98873.69;;;3.02;76.40
77587;BME280;66744;49.716;17.158;2023-02-01T05:47:13;98872.00;;;2.97;75.91
77587;BME280;66744;49.716;17.158;2023-02-01T05:50:15;98870.09;;;2.98;76.39
77587;BME280;66744;49.716;17.158;2023-02-01T05:53:18;98864.59;;;2.94;76.43
77587;BME280;66744;49.716;17.158;2023-02-01T05:56:19;98863.06;;;2.93;76.15
77587;BME280;66744;49.716;17.158;2023-02-01T05:59:20;98853.78;;;2.94;75.96
77587;BME280;66744;49.716;17.158;2023-02-01T06:02:21;98854.50;;;2.91;76.47
77587;BME280;66744;49.716;17.158;2023-02-01T06:05:25;98851.28;;;2.86;76.46
77587;BME280;66744;49.716;17.158;2023-02-01T06:08:28;98859.91;;;2.91;76.75
77587;BME280;66744;49.716;17.158;2023-02-01T06:11:29;98859.91;;;2.91;75.59
77587;BME280;66744;49.716;17.158;2023-02-01T06:14:30;98847.94;;;3.08;74.81
77587;BME280;66744;49.716;17.158;2023-02-01T06:17:31;98848.19;;;3.19;74.01
77587;BME280;66744;49.716;17.158;2023-02-01T06:20:33;98853.91;;;3.33;72.70
77587;BME280;66744;49.716;17.158;2023-02-01T06:23:34;98846.38;;;3.42;72.68
77587;BME280;66744;49.716;17.158;2023-02-01T06:26:35;98848.66;;;3.40;72.28
77587;BME280;66744;49.716;17.158;2023-02-01T06:29:36;98843.13;;;3.52;71.65
77587;BME280;66744;49.716;17.158;2023-02-01T06:32:37;98841.19;;;3.52;71.35
77587;BME280;66744;49.716;17.158;2023-02-01T06:35:43;98833.97;;;3.56;70.78
77587;BME280;66744;49.716;17.158;2023-02-01T06:38:45;98834.38;;;3.58;71.19
77587;BME280;66744;49.716;17.158;2023-02-01T06:41:49;98820.84;;;3.58;70.52
77587;BME280;66744;49.716;17.158;2023-02-01T06:44:50;98833.03;;;3.68;70.17
77587;BME280;66744;49.716;17.158;2023-02-01T06:47:52;98832.59;;;3.66;69.88
77587;BME280;66744;49.716;17.158;2023-02-01T06:50:53;98833.31;;;3.63;69.44
77587;BME280;66744;49.716;17.158;2023-02-01T06:53:54;98830.81;;;3.74;69.39
77587;BME280;66744;49.716;17.158;2023-02-01T06:56:55;98829.84;;;3.82;68.53
77587;BME280;66744;49.716;17.158;2023-02-01T06:59:56;98824.47;;;3.85;68.64
77587;BME280;66744;49.716;17.158;2023-02-01T07:02:59;98815.66;;;3.88;68.06
77587;BME280;66744;49.716;17.158;2023-02-01T07:06:00;98822.84;;;3.81;68.00
77587;BME280;66744;49.716;17.158;2023-02-01T07:09:02;98829.25;;;3.92;67.72
77587;BME280;66744;49.716;17.158;2023-02-01T07:12:03;98819.16;;;3.89;67.44
77587;BME280;66744;49.716;17.158;2023-02-01T07:15:05;98822.97;;;3.88;67.32
77587;BME280;66744;49.716;17.158;2023-02-01T07:18:07;98821.56;;;3.94;67.60
77587;BME280;66744;49.716;17.158;2023-02-01T07:21:09;98826.69;;;3.99;67.47
77587;BME280;66744;49.716;17.158;2023-02-01T07:24:10;98824.25;;;4.13;66.75
77587;BME280;66744;49.716;17.158;2023-02-01T07:27:11;98830.63;;;4.66;65.41
77587;BME280;66744;49.716;17.158;2023-02-01T07:30:12;98828.50;;;4.78;63.66
77587;BME280;66744;49.716;17.158;2023-02-01T07:33:13;98821.03;;;5.21;63.74
77587;BME280;66744;49.716;17.158;2023-02-01T07:36:16;98815.75;;;5.91;60.56
77587;BME280;66744;49.716;17.158;2023-02-01T07:39:17;98817.03;;;6.01;60.40
77587;BME280;66744;49.716;17.158;2023-02-01T07:42:18;98816.00;;;5.82;60.02
77587;BME280;66744;49.716;17.158;2023-02-01T07:45:20;98820.63;;;5.49;61.48
77587;BME280;66744;49.716;17.158;2023-02-01T07:48:22;98814.19;;;5.04;63.09
77587;BME280;66744;49.716;17.158;2023-02-01T07:51:23;98807.28;;;4.84;64.57
77587;BME280;66744;49.716;17.158;2023-02-01T07:54:25;98807.19;;;4.77;64.80
77587;BME280;66744;49.716;17.158;2023-02-01T07:57:26;98811.34;;;4.71;65.27
77587;BME280;66744;49.716;17.158;2023-02-01T08:00:27;98811.03;;;4.76;65.32
77587;BME280;66744;49.716;17.158;2023-02-01T08:03:49;98801.38;;;4.78;65.17
77587;BME280;66744;49.716;17.158;2023-02-01T08:06:51;98801.50;;;4.86;65.16
77587;BME280;66744;49.716;17.158;2023-02-01T08:09:52;98794.72;;;5.25;64.28
77587;BME280;66744;49.716;17.158;2023-02-01T08:12:57;98799.06;;;5.29;64.08
77587;BME280;66744;49.716;17.158;2023-02-01T08:15:59;98786.53;;;5.51;63.92
77587;BME280;66744;49.716;17.158;2023-02-01T08:19:01;98792.63;;;5.71;63.22
77587;BME280;66744;49.716;17.158;2023-02-01T08:22:02;98801.22;;;5.76;62.57
77587;BME280;66744;49.716;17.158;2023-02-01T08:25:07;98794.50;;;5.67;63.14
77587;BME280;66744;49.716;17.158;2023-02-01T08:28:10;98799.34;;;5.84;62.51
77587;BME280;66744;49.716;17.158;2023-02-01T08:31:14;98791.34;;;5.94;62.22
77587;BME280;66744;49.716;17.158;2023-02-01T08:34:16;98781.13;;;6.18;60.10
77587;BME280;66744;49.716;17.158;2023-02-01T08:37:17;98784.56;;;6.11;60.71
77587;BME280;66744;49.716;17.158;2023-02-01T08:40:18;98789.47;;;5.99;62.50
77587;BME280;66744;49.716;17.158;2023-02-01T08:43:20;98791.06;;;6.03;62.35
77587;BME280;66744;49.716;17.158;2023-02-01T08:46:22;98783.22;;;5.94;61.96
77587;BME280;66744;49.716;17.158;2023-02-01T08:49:23;98798.06;;;5.74;62.30
77587;BME280;66744;49.716;17.158;2023-02-01T08:52:24;98799.06;;;5.59;62.79
77587;BME280;66744;49.716;17.158;2023-02-01T08:55:26;98800.47;;;5.50;64.09
77587;BME280;66744;49.716;17.158;2023-02-01T08:58:27;98801.06;;;5.36;65.14
77587;BME280;66744;49.716;17.158;2023-02-01T09:01:28;98788.22;;;5.33;65.34
77587;BME280;66744;49.716;17.158;2023-02-01T09:04:30;98789.72;;;5.27;65.56
77587;BME280;66744;49.716;17.158;2023-02-01T09:07:32;98799.41;;;5.28;65.63
77587;BME280;66744;49.716;17.158;2023-02-01T09:10:34;98801.03;;;5.32;66.12
77587;BME280;66744;49.716;17.158;2023-02-01T09:13:36;98794.91;;;5.39;66.94
77587;BME280;66744;49.716;17.158;2023-02-01T09:16:37;98791.59;;;5.53;66.55
77587;BME280;66744;49.716;17.158;2023-02-01T09:19:38;98791.25;;;5.58;66.18
77587;BME280;66744;49.716;17.158;2023-02-01T09:22:40;98802.16;;;5.87;66.77
77587;BME280;66744;49.716;17.158;2023-02-01T09:25:41;98790.22;;;5.99;66.00
77587;BME280;66744;49.716;17.158;2023-02-01T09:28:42;98793.75;;;5.70;67.86
77587;BME280;66744;49.716;17.158;2023-02-01T09:31:43;98792.31;;;5.20;69.49
77587;BME280;66744;49.716;17.158;2023-02-01T09:34:45;98777.72;;;5.02;71.02
77587;BME280;66744;49.716;17.158;2023-02-01T09:37:46;98788.00;;;5.15;70.81
77587;BME280;66744;49.716;17.158;2023-02-01T09:40:47;98794.09;;;5.35;69.66
77587;BME280;66744;49.716;17.158;2023-02-01T09:43:59;98794.53;;;5.11;70.90
77587;BME280;66744;49.716;17.158;2023-02-01T09:47:10;98794.72;;;4.99;71.31
77587;BME280;66744;49.716;17.158;2023-02-01T09:50:15;98795.47;;;4.96;71.34
77587;BME280;66744;49.716;17.158;2023-02-01T09:53:25;98792.22;;;5.13;71.56
77587;BME280;66744;49.716;17.158;2023-02-01T09:56:48;98782.53;;;5.42;70.40
77587;BME280;66744;49.716;17.158;2023-02-01T10:00:22;98775.44;;;5.30;70.47
77587;BME280;66744;49.716;17.158;2023-02-01T10:03:32;98788.78;;;5.16;71.51
77587;BME280;66744;49.716;17.158;2023-02-01T10:06:55;98786.56;;;5.25;71.79
77587;BME280;66744;49.716;17.158;2023-02-01T10:10:00;98791.28;;;5.02;73.15
77587;BME280;66744;49.716;17.158;2023-02-01T10:17:07;98789.84;;;4.13;77.71
77587;BME280;66744;49.716;17.158;2023-02-01T10:24:12;98801.28;;;3.65;80.02
77587;BME280;66744;49.716;17.158;2023-02-01T10:27:22;98797.63;;;3.38;81.64
77587;BME280;66744;49.716;17.158;2023-02-01T10:30:29;98785.25;;;3.03;82.87
77587;BME280;66744;49.716;17.158;2023-02-01T10:33:47;98796.84;;;3.03;84.27
77587;BME280;66744;49.716;17.158;2023-02-01T10:36:53;98779.13;;;3.06;84.86
77587;BME280;66744;49.716;17.158;2023-02-01T10:39:59;98786.91;;;3.07;85.02
77587;BME280;66744;49.716;17.158;2023-02-01T10:43:01;98781.31;;;3.16;84.85
77587;BME280;66744;49.716;17.158;2023-02-01T10:46:03;98772.94;;;3.40;85.24
77587;BME280;66744;49.716;17.158;2023-02-01T10:49:08;98776.56;;;3.47;84.42
77587;BME280;66744;49.716;17.158;2023-02-01T10:58:46;98766.66;;;4.16;83.35
77587;BME280;66744;49.716;17.158;2023-02-01T11:01:49;98763.53;;;4.14;81.72
77587;BME280;66744;49.716;17.158;2023-02-01T11:04:59;98766.25;;;4.37;81.22
77587;BME280;66744;49.716;17.158;2023-02-01T11:08:01;98760.72;;;4.52;81.04
77587;BME280;66744;49.716;17.158;2023-02-01T11:11:03;98751.84;;;4.82;80.49
77587;BME280;66744;49.716;17.158;2023-02-01T11:14:18;98745.66;;;5.07;79.77
77587;BME280;66744;49.716;17.158;2023-02-01T11:17:26;98743.72;;;5.38;79.15
77587;BME280;66744;49.716;17.158;2023-02-01T11:23:33;98735.66;;;5.45;77.99
77587;BME280;66744;49.716;17.158;2023-02-01T11:26:39;98737.59;;;5.14;78.10
77587;BME280;66744;49.716;17.158;2023-02-01T11:29:44;98740.34;;;4.88;78.31
77587;BME280;66744;49.716;17.158;2023-02-01T11:32:46;98727.00;;;5.02;79.21
77587;BME280;66744;49.716;17.158;2023-02-01T11:35:49;98726.47;;;4.93;79.62
77587;BME280;66744;49.716;17.158;2023-02-01T11:38:54;98718.63;;;5.14;78.49
77587;BME280;66744;49.716;17.158;2023-02-01T11:42:16;98718.41;;;4.97;79.28
77587;BME280;66744;49.716;17.158;2023-02-01T11:48:19;98714.59;;;4.75;79.93
77587;BME280;66744;49.716;17.158;2023-02-01T11:51:37;98719.38;;;4.59;80.23
77587;BME280;66744;49.716;17.158;2023-02-01T11:55:07;98718.38;;;4.44;80.57
77587;BME280;66744;49.716;17.158;2023-02-01T12:06:13;98705.81;;;4.33;80.61
77587;BME280;66744;49.716;17.158;2023-02-01T12:09:34;98700.94;;;4.42;80.52
77587;BME280;66744;49.716;17.158;2023-02-01T12:16:00;98673.25;;;4.82;78.96
77587;BME280;66744;49.716;17.158;2023-02-01T12:22:34;98680.19;;;5.09;76.65
77587;BME280;66744;49.716;17.158;2023-02-01T12:35:59;98652.13;;;6.52;71.83
77587;BME280;66744;49.716;17.158;2023-02-01T12:39:55;98641.03;;;6.78;70.42
77587;BME280;66744;49.716;17.158;2023-02-01T12:43:01;98639.47;;;6.77;70.14
77587;BME280;66744;49.716;17.158;2023-02-01T12:46:32;98633.97;;;7.70;68.47
77587;BME280;66744;49.716;17.158;2023-02-01T12:49:49;98629.31;;;8.06;64.68
77587;BME280;66744;49.716;17.158;2023-02-01T12:52:54;98617.63;;;7.78;64.87
77587;BME280;66744;49.716;17.158;2023-02-01T12:56:02;98621.44;;;7.38;66.56
77587;BME280;66744;49.716;17.158;2023-02-01T12:59:26;98610.09;;;7.14;67.37
77587;BME280;66744;49.716;17.158;2023-02-01T13:02:48;98600.94;;;6.61;68.23
77587;BME280;66744;49.716;17.158;2023-02-01T13:05:55;98609.88;;;6.07;71.42
77587;BME280;66744;49.716;17.158;2023-02-01T13:12:36;98600.44;;;5.13;75.55
77587;BME280;66744;49.716;17.158;2023-02-01T13:15:49;98604.00;;;4.88;76.66
77587;BME280;66744;49.716;17.158;2023-02-01T13:18:58;98611.97;;;4.73;77.78
77587;BME280;66744;49.716;17.158;2023-02-01T13:22:15;98599.69;;;4.83;77.83
77587;BME280;66744;49.716;17.158;2023-02-01T13:28:43;98601.56;;;4.79;78.02
77587;BME280;66744;49.716;17.158;2023-02-01T13:44:50;98606.44;;;4.37;79.25
77587;BME280;66744;49.716;17.158;2023-02-01T13:47:56;98603.97;;;4.54;78.36
77587;BME280;66744;49.716;17.158;2023-02-01T13:50:58;98595.81;;;4.54;77.99
77587;BME280;66744;49.716;17.158;2023-02-01T13:54:01;98624.91;;;4.57;77.99
77587;BME280;66744;49.716;17.158;2023-02-01T13:57:04;98609.38;;;4.54;77.86
77587;BME280;66744;49.716;17.158;2023-02-01T14:00:24;98609.78;;;4.56;77.59
77587;BME280;66744;49.716;17.158;2023-02-01T14:03:49;98614.91;;;4.61;77.27
77587;BME280;66744;49.716;17.158;2023-02-01T14:06:51;98630.88;;;4.70;76.49
77587;BME280;66744;49.716;17.158;2023-02-01T14:09:54;98623.53;;;4.70;75.78
77587;BME280;66744;49.716;17.158;2023-02-01T14:13:13;98628.13;;;4.66;76.02
77587;BME280;66744;49.716;17.158;2023-02-01T14:16:22;98611.59;;;4.75;75.11
77587;BME280;66744;49.716;17.158;2023-02-01T14:19:33;98615.13;;;4.79;74.48
77587;BME280;66744;49.716;17.158;2023-02-01T14:22:34;98617.19;;;4.89;74.15
77587;BME280;66744;49.716;17.158;2023-02-01T14:25:35;98620.41;;;4.98;73.93
77587;BME280;66744;49.716;17.158;2023-02-01T14:28:41;98625.78;;;4.95;74.33
77587;BME280;66744;49.716;17.158;2023-02-01T14:35:19;98631.81;;;5.14;73.58
77587;BME280;66744;49.716;17.158;2023-02-01T14:38:21;98630.19;;;5.06;73.68
77587;BME280;66744;49.716;17.158;2023-02-01T14:41:33;98642.09;;;4.98;73.71
77587;BME280;66744;49.716;17.158;2023-02-01T14:44:36;98647.84;;;4.93;74.20
77587;BME280;66744;49.716;17.158;2023-02-01T14:47:37;98646.31;;;4.96;73.78
77587;BME280;66744;49.716;17.158;2023-02-01T14:50:47;98648.16;;;4.88;74.04
77587;BME280;66744;49.716;17.158;2023-02-01T14:53:49;98673.34;;;4.89;74.57
77587;BME280;66744;49.716;17.158;2023-02-01T14:56:52;98666.38;;;4.88;74.27
77587;BME280;66744;49.716;17.158;2023-02-01T15:00:13;98679.84;;;4.84;75.19
77587;BME280;66744;49.716;17.158;2023-02-01T15:09:47;98680.56;;;4.78;74.95
77587;BME280;66744;49.716;17.158;2023-02-01T15:12:49;98683.69;;;4.80;74.25
77587;BME280;66744;49.716;17.158;2023-02-01T15:16:11;98686.06;;;4.85;74.12
77587;BME280;66744;49.716;17.158;2023-02-01T15:19:13;98687.50;;;4.75;74.18
77587;BME280;66744;49.716;17.158;2023-02-01T15:22:18;98681.50;;;4.92;73.99
77587;BME280;66744;49.716;17.158;2023-02-01T15:25:22;98691.88;;;4.83;73.99
77587;BME280;66744;49.716;17.158;2023-02-01T15:28:25;98698.16;;;4.91;74.09
77587;BME280;66744;49.716;17.158;2023-02-01T15:31:34;98689.63;;;4.89;74.34
77587;BME280;66744;49.716;17.158;2023-02-01T15:34:50;98684.50;;;4.84;74.53
77587;BME280;66744;49.716;17.158;2023-02-01T15:37:51;98694.94;;;4.82;74.84
77587;BME280;66744;49.716;17.158;2023-02-01T15:46:58;98687.69;;;4.63;75.87
77587;BME280;66744;49.716;17.158;2023-02-01T15:50:01;98685.41;;;4.65;75.64
77587;BME280;66744;49.716;17.158;2023-02-01T15:53:02;98687.22;;;4.57;75.73
77587;BME280;66744;49.716;17.158;2023-02-01T15:56:06;98684.84;;;4.52;75.54
77587;BME280;66744;49.716;17.158;2023-02-01T15:59:22;98684.31;;;4.43;75.33
77587;BME280;66744;49.716;17.158;2023-02-01T16:05:38;98694.31;;;4.39;74.69
77587;BME280;66744;49.716;17.158;2023-02-01T16:08:50;98708.94;;;4.35;75.04
77587;BME280;66744;49.716;17.158;2023-02-01T16:14:53;98703.97;;;4.37;74.09
77587;BME280;66744;49.716;17.158;2023-02-01T16:17:55;98702.38;;;4.36;73.88
77587;BME280;66744;49.716;17.158;2023-02-01T16:20:57;98705.16;;;4.39;73.42
77587;BME280;66744;49.716;17.158;2023-02-01T16:23:58;98714.84;;;4.40;73.58
77587;BME280;66744;49.716;17.158;2023-02-01T16:27:04;98714.50;;;4.45;72.98
77587;BME280;66744;49.716;17.158;2023-02-01T16:30:08;98712.97;;;4.44;72.47
77587;BME280;66744;49.716;17.158;2023-02-01T16:33:14;98713.00;;;4.48;71.66
77587;BME280;66744;49.716;17.158;2023-02-01T16:36:19;98707.59;;;4.48;72.28
77587;BME280;66744;49.716;17.158;2023-02-01T16:39:21;98708.03;;;4.50;70.95
77587;BME280;66744;49.716;17.158;2023-02-01T16:42:22;98704.59;;;4.53;70.96
77587;BME280;66744;49.716;17.158;2023-02-01T16:45:23;98705.47;;;4.60;70.46
77587;BME280;66744;49.716;17.158;2023-02-01T16:48:33;98705.81;;;4.59;71.26
77587;BME280;66744;49.716;17.158;2023-02-01T16:51:38;98715.91;;;4.58;71.19
77587;BME280;66744;49.716;17.158;2023-02-01T16:54:41;98704.63;;;4.56;71.47
77587;BME280;66744;49.716;17.158;2023-02-01T16:57:43;98706.94;;;4.54;72.15
77587;BME280;66744;49.716;17.158;2023-02-01T17:00:45;98708.34;;;4.71;72.68
77587;BME280;66744;49.716;17.158;2023-02-01T17:03:46;98701.56;;;4.58;72.85
77587;BME280;66744;49.716;17.158;2023-02-01T17:06:48;98713.13;;;4.55;73.32
77587;BME280;66744;49.716;17.158;2023-02-01T17:09:51;98718.44;;;4.48;73.44
77587;BME280;66744;49.716;17.158;2023-02-01T17:12:52;98714.97;;;4.47;73.46
77587;BME280;66744;49.716;17.158;2023-02-01T17:16:03;98723.84;;;4.48;73.09
77587;BME280;66744;49.716;17.158;2023-02-01T17:19:12;98711.69;;;4.61;72.00
77587;BME280;66744;49.716;17.158;2023-02-01T17:22:15;98711.25;;;4.59;71.93
77587;BME280;66744;49.716;17.158;2023-02-01T17:25:18;98704.59;;;4.53;72.32
77587;BME280;66744;49.716;17.158;2023-02-01T17:28:19;98700.25;;;4.48;73.10
77587;BME280;66744;49.716;17.158;2023-02-01T17:31:21;98696.03;;;4.51;73.30
77587;BME280;66744;49.716;17.158;2023-02-01T17:34:22;98690.84;;;4.42;73.97
77587;BME280;66744;49.716;17.158;2023-02-01T17:37:32;98691.00;;;4.27;74.36
77587;BME280;66744;49.716;17.158;2023-02-01T17:40:33;98691.22;;;4.14;75.15
77587;BME280;66744;49.716;17.158;2023-02-01T17:43:35;98688.44;;;4.11;75.14
77587;BME280;66744;49.716;17.158;2023-02-01T17:46:37;98701.56;;;4.09;75.55
77587;BME280;66744;49.716;17.158;2023-02-01T17:49:38;98697.66;;;4.06;75.68
77587;BME280;66744;49.716;17.158;2023-02-01T17:52:40;98688.25;;;4.00;75.88
77587;BME280;66744;49.716;17.158;2023-02-01T17:55:44;98698.31;;;4.00;75.62
77587;BME280;66744;49.716;17.158;2023-02-01T17:58:46;98696.38;;;4.00;75.92
77587;BME280;66744;49.716;17.158;2023-02-01T18:01:47;98700.94;;;3.96;75.79
77587;BME280;66744;49.716;17.158;2023-02-01T18:04:50;98698.72;;;4.02;75.69
77587;BME280;66744;49.716;17.158;2023-02-01T18:07:51;98686.63;;;3.96;75.24
77587;BME280;66744;49.716;17.158;2023-02-01T18:10:55;98687.41;;;3.96;75.43
77587;BME280;66744;49.716;17.158;2023-02-01T18:13:56;98681.22;;;3.96;75.11
77587;BME280;66744;49.716;17.158;2023-02-01T18:16:58;98675.06;;;3.99;74.59
77587;BME280;66744;49.716;17.158;2023-02-01T18:19:59;98679.06;;;4.05;74.50